Terminal Aerodrome Forecast
Issued by NWS Wakefield, VA

Home | Current Version | Previous Version | Text Only | Print | Product List | Glossary On
Versions: 1 2 3 4 5 6 7 8 9 10 11 12 13 14 15 16 17
000
FTUS41 KAKQ 040554 RRA
TAFECG
TAF
KECG 040554Z 0406/0506 20006KT P6SM -RA SCT010 OVC050
      TEMPO 0406/0409 3SM -RA BR BKN008
     FM040900 23009KT 5SM -SHRA BR BKN015 OVC040
     FM041400 25013G20KT P6SM VCSH BKN050
     FM050000 25008KT P6SM BKN050 OVC100=

USA.gov is the U.S. government's official web portal to all federal, state and local government web resources and services.